Time;durP1;ratioP1;P1;durP2;ratioP2;P2;SDS_P1;SDS_P2;PMS_P1;PMS_P2;Temp;Humidity;BMP_temperature;BMP_pressure;BME280_temperature;BME280_humidity;BME280_pressure;Samples;Min_cycle;Max_cycle;Signal;HPM_P1;HPM_P2
2023/03/11 00:01:39;;;;;;;0.57;0.57;;;14.50;51.20;;;;;;5052363;28;20175;-67
2023/03/11 00:04:05;;;;;;;0.50;0.50;;;14.60;51.30;;;;;;5051497;28;20194;-65
2023/03/11 00:06:33;;;;;;;0.55;0.55;;;14.50;51.30;;;;;;5052297;28;20175;-66
2023/03/11 00:08:58;;;;;;;0.63;0.63;;;14.50;51.30;;;;;;5051769;28;20518;-65
2023/03/11 00:11:24;;;;;;;0.50;0.50;;;14.50;51.30;;;;;;5051593;28;20175;-65
2023/03/11 00:13:49;;;;;;;0.73;0.55;;;14.40;51.20;;;;;;5051781;28;20652;-65
2023/03/11 00:16:15;;;;;;;1.15;0.55;;;14.50;51.30;;;;;;5052229;28;20229;-65
2023/03/11 00:18:40;;;;;;;0.98;0.60;;;14.40;51.20;;;;;;5051043;28;20234;-65
2023/03/11 00:21:11;;;;;;;0.60;0.60;;;14.40;51.20;;;;;;5051780;28;20236;-64
2023/03/11 00:23:36;;;;;;;0.60;0.60;;;14.40;51.20;;;;;;5050854;28;20270;-66
2023/03/11 00:26:02;;;;;;;1.13;0.75;;;14.40;51.20;;;;;;5051258;28;20265;-66
2023/03/11 00:28:27;;;;;;;2.38;0.82;;;14.40;51.20;;;;;;5052166;28;20201;-66
2023/03/11 00:30:53;;;;;;;1.30;0.77;;;14.40;51.20;;;;;;5051748;28;20183;-67
2023/03/11 00:33:18;;;;;;;0.73;0.73;;;14.40;51.30;;;;;;5051244;28;20237;-67
2023/03/11 00:35:44;;;;;;;1.63;0.80;;;14.40;51.20;;;;;;5051486;28;20179;-66
2023/03/11 00:38:13;;;;;;;0.65;0.65;;;14.30;51.20;;;;;;5051913;28;20510;-65
2023/03/11 00:40:38;;;;;;;0.52;0.45;;;14.30;51.30;;;;;;5050397;28;20199;-66
2023/03/11 00:43:04;;;;;;;0.57;0.50;;;14.30;51.20;;;;;;5051501;28;20660;-65
2023/03/11 00:45:29;;;;;;;1.77;0.90;;;14.30;51.20;;;;;;5051143;28;20175;-65
2023/03/11 00:47:55;;;;;;;0.80;0.68;;;14.30;51.20;;;;;;5051608;28;20615;-65
2023/03/11 00:50:23;;;;;;;0.60;0.60;;;14.30;51.20;;;;;;5051695;28;20626;-64
2023/03/11 00:52:49;;;;;;;1.80;0.80;;;14.30;51.20;;;;;;5050742;28;20614;-65
2023/03/11 00:55:16;;;;;;;1.10;0.60;;;14.30;51.20;;;;;;5051851;28;20178;-65
2023/03/11 00:57:42;;;;;;;1.00;0.90;;;14.30;51.20;;;;;;5051434;28;20171;-66
2023/03/11 01:00:10;;;;;;;1.70;0.95;;;14.30;51.30;;;;;;5050905;28;20274;-66
2023/03/11 01:02:36;;;;;;;0.75;0.75;;;14.30;51.20;;;;;;5051603;28;20178;-66
2023/03/11 01:05:02;;;;;;;0.50;0.50;;;14.20;51.20;;;;;;5051314;28;20195;-66
2023/03/11 01:07:28;;;;;;;0.60;0.60;;;14.20;51.10;;;;;;5051323;28;20528;-65
2023/03/11 01:09:53;;;;;;;1.10;0.70;;;14.20;51.20;;;;;;5051081;28;20171;-65
2023/03/11 01:12:19;;;;;;;1.90;0.80;;;14.20;51.10;;;;;;5051459;28;20193;-65
2023/03/11 01:14:44;;;;;;;0.93;0.70;;;14.20;51.20;;;;;;5050438;28;20175;-65
2023/03/11 01:17:10;;;;;;;2.70;0.93;;;14.20;51.20;;;;;;5051304;28;20203;-65
2023/03/11 01:19:35;;;;;;;0.98;0.60;;;14.20;51.20;;;;;;5050965;28;20665;-65
2023/03/11 01:22:04;;;;;;;1.30;0.93;;;14.20;51.20;;;;;;5050560;28;20562;-65
2023/03/11 01:24:29;;;;;;;0.70;0.70;;;14.20;51.10;;;;;;5051225;28;20206;-66
2023/03/11 01:26:55;;;;;;;1.05;0.65;;;14.30;51.10;;;;;;5053925;28;20229;-66
2023/03/11 01:29:20;;;;;;;0.70;0.70;;;14.30;50.90;;;;;;5054425;28;20248;-67
2023/03/11 01:31:46;;;;;;;1.35;0.75;;;14.40;50.90;;;;;;5054610;28;20546;-66
2023/03/11 01:34:11;;;;;;;1.10;0.80;;;14.40;50.90;;;;;;5054765;28;20715;-67
2023/03/11 01:36:37;;;;;;;1.25;0.90;;;14.40;50.80;;;;;;5054312;28;20193;-65
2023/03/11 01:39:02;;;;;;;1.92;1.08;;;14.30;50.80;;;;;;5054469;28;20211;-65
2023/03/11 01:41:28;;;;;;;1.25;0.75;;;14.30;50.90;;;;;;5054752;28;20633;-65
2023/03/11 01:43:54;;;;;;;0.75;0.60;;;14.30;50.90;;;;;;5053664;28;20321;-65
2023/03/11 01:46:26;;;;;;;1.10;0.93;;;14.30;50.90;;;;;;5054678;28;20368;-65
2023/03/11 01:48:55;;;;;;;2.20;1.00;;;14.20;51.00;;;;;;5053461;28;20171;-65
2023/03/11 01:51:29;;;;;;;1.67;0.88;;;14.20;51.00;;;;;;5054659;28;20183;-64
2023/03/11 01:53:55;;;;;;;2.50;1.13;;;14.20;51.00;;;;;;5053082;28;20195;-65
2023/03/11 01:56:21;;;;;;;1.05;0.95;;;14.20;51.00;;;;;;5052475;28;20268;-65
2023/03/11 01:58:48;;;;;;;0.80;0.60;;;14.30;51.00;;;;;;5052737;28;20219;-67
2023/03/11 02:01:14;;;;;;;1.80;1.25;;;14.30;51.00;;;;;;5052991;28;20179;-66
2023/03/11 02:03:41;;;;;;;0.80;0.80;;;14.30;50.90;;;;;;5052257;28;20201;-66
2023/03/11 02:06:11;;;;;;;1.33;0.85;;;14.30;50.70;;;;;;5053085;28;20183;-66
2023/03/11 02:08:37;;;;;;;0.70;0.70;;;14.40;50.60;;;;;;5053011;28;20582;-65
2023/03/11 02:11:04;;;;;;;1.13;0.80;;;14.40;50.50;;;;;;5051980;28;20217;-65
2023/03/11 02:13:33;;;;;;;1.33;0.80;;;14.40;50.60;;;;;;5054242;28;20182;-65
2023/03/11 02:15:59;;;;;;;1.65;0.90;;;14.30;50.70;;;;;;5053528;28;20175;-65
2023/03/11 02:18:24;;;;;;;0.70;0.65;;;14.30;50.70;;;;;;5053185;28;20256;-65
2023/03/11 02:21:05;;;;;;;1.05;0.80;;;14.30;50.80;;;;;;5053797;28;20587;-65
2023/03/11 02:24:03;;;;;;;0.82;0.82;;;14.20;50.80;;;;;;5052874;28;20171;-65
2023/03/11 02:26:43;;;;;;;1.30;0.80;;;14.20;50.90;;;;;;5049032;28;20183;-66
2023/03/11 02:29:09;;;;;;;1.60;0.98;;;14.20;50.80;;;;;;5052417;28;20540;-65
2023/03/11 02:31:35;;;;;;;1.60;0.70;;;14.20;50.80;;;;;;5051891;28;20174;-66
2023/03/11 02:34:01;;;;;;;1.10;0.82;;;14.30;50.80;;;;;;5052152;28;20183;-67
2023/03/11 02:36:35;;;;;;;1.25;0.70;;;14.40;50.70;;;;;;5052446;28;20173;-66
2023/03/11 02:39:00;;;;;;;1.23;0.80;;;14.40;50.60;;;;;;5052451;28;20283;-65
2023/03/11 02:41:26;;;;;;;1.58;0.90;;;14.40;50.50;;;;;;5053414;28;20270;-65
2023/03/11 02:43:52;;;;;;;0.90;0.65;;;14.50;50.50;;;;;;5052011;28;20175;-65
2023/03/11 02:46:17;;;;;;;1.63;0.82;;;14.50;50.50;;;;;;5051614;28;20703;-65
2023/03/11 02:48:43;;;;;;;0.98;0.77;;;14.60;50.40;;;;;;5051906;28;20550;-65
2023/03/11 02:51:08;;;;;;;0.88;0.75;;;14.60;50.30;;;;;;5052118;28;20641;-64
2023/03/11 02:53:38;;;;;;;2.15;0.90;;;14.60;50.20;;;;;;5052818;28;20171;-64
2023/03/11 02:56:03;;;;;;;1.70;0.95;;;14.60;50.20;;;;;;5052976;28;20183;-65
2023/03/11 02:58:29;;;;;;;0.68;0.68;;;14.60;50.20;;;;;;5053295;28;20275;-67
2023/03/11 03:00:54;;;;;;;1.88;0.75;;;14.60;50.30;;;;;;5052193;28;20207;-66
2023/03/11 03:03:20;;;;;;;0.95;0.70;;;14.60;50.30;;;;;;5053177;28;20257;-66
2023/03/11 03:05:45;;;;;;;2.53;0.90;;;14.60;50.20;;;;;;5052813;28;20308;-66
2023/03/11 03:08:11;;;;;;;1.05;0.80;;;14.50;50.30;;;;;;5052140;28;20254;-65
2023/03/11 03:10:36;;;;;;;0.85;0.63;;;14.50;50.40;;;;;;5053042;28;20171;-64
2023/03/11 03:13:02;;;;;;;0.73;0.70;;;14.50;50.40;;;;;;5051764;28;20178;-65
2023/03/11 03:15:28;;;;;;;1.38;0.80;;;14.60;50.40;;;;;;5052947;28;20174;-65
2023/03/11 03:17:53;;;;;;;0.75;0.60;;;14.60;50.30;;;;;;5052240;28;20283;-65
2023/03/11 03:20:21;;;;;;;0.50;0.50;;;14.60;50.30;;;;;;5051913;28;20213;-64
2023/03/11 03:22:47;;;;;;;0.85;0.85;;;14.60;50.20;;;;;;5052412;28;20250;-65
2023/03/11 03:25:12;;;;;;;1.42;0.80;;;14.60;50.20;;;;;;5052673;28;20660;-64
2023/03/11 03:27:38;;;;;;;1.00;0.70;;;14.60;50.20;;;;;;5052073;28;20301;-64
2023/03/11 03:30:04;;;;;;;1.55;1.00;;;14.60;50.20;;;;;;5052159;28;20626;-66
2023/03/11 03:32:30;;;;;;;0.70;0.70;;;14.60;50.20;;;;;;5052453;28;20179;-67
2023/03/11 03:34:57;;;;;;;1.05;0.95;;;14.60;50.20;;;;;;5051485;28;20250;-66
2023/03/11 03:37:24;;;;;;;1.50;0.70;;;14.60;50.20;;;;;;5052822;28;20189;-66
2023/03/11 03:39:50;;;;;;;1.13;0.70;;;14.60;50.30;;;;;;5051882;28;20689;-65
2023/03/11 03:42:15;;;;;;;0.60;0.60;;;14.50;50.30;;;;;;5051550;28;20175;-65
2023/03/11 03:44:41;;;;;;;0.60;0.60;;;14.60;50.30;;;;;;5052354;28;20177;-65
2023/03/11 03:47:06;;;;;;;1.17;1.08;;;14.60;50.30;;;;;;5052201;28;20190;-64
2023/03/11 03:49:32;;;;;;;1.10;0.70;;;14.60;50.20;;;;;;5050895;28;20175;-64
2023/03/11 03:51:58;;;;;;;1.85;0.93;;;14.60;50.20;;;;;;5051982;28;20692;-64
2023/03/11 03:54:23;;;;;;;2.00;0.70;;;14.60;50.20;;;;;;5052327;28;20176;-65
2023/03/11 03:56:49;;;;;;;0.73;0.60;;;14.60;50.20;;;;;;5051253;28;20175;-66
2023/03/11 03:59:14;;;;;;;1.23;0.70;;;14.60;50.20;;;;;;5052030;28;20219;-66
2023/03/11 04:01:40;;;;;;;1.48;1.00;;;14.60;50.20;;;;;;5052135;28;20179;-66
2023/03/11 04:04:05;;;;;;;0.88;0.80;;;14.60;50.20;;;;;;5050919;28;20483;-66
2023/03/11 04:06:31;;;;;;;1.17;0.77;;;14.50;50.20;;;;;;5052105;28;20203;-65
2023/03/11 04:08:56;;;;;;;1.60;0.75;;;14.50;50.30;;;;;;5051605;28;20186;-65
2023/03/11 04:11:22;;;;;;;1.35;0.93;;;14.50;50.30;;;;;;5051260;28;20171;-65
2023/03/11 04:13:47;;;;;;;0.98;0.73;;;14.60;50.40;;;;;;5051647;28;20177;-65
2023/03/11 04:16:20;;;;;;;1.08;0.82;;;14.60;50.30;;;;;;5051814;28;20186;-65
2023/03/11 04:18:45;;;;;;;0.70;0.70;;;14.60;50.20;;;;;;5049902;28;20223;-65
2023/03/11 04:21:11;;;;;;;0.60;0.60;;;14.60;50.20;;;;;;5051958;28;20171;-64
2023/03/11 04:23:37;;;;;;;1.02;0.70;;;14.60;50.20;;;;;;5051183;28;20972;-65
2023/03/11 04:26:02;;;;;;;0.93;0.63;;;14.60;50.20;;;;;;5051667;28;20186;-65
2023/03/11 04:28:28;;;;;;;0.70;0.70;;;14.60;50.20;;;;;;5051889;28;20183;-66
2023/03/11 04:30:53;;;;;;;0.73;0.65;;;14.60;50.20;;;;;;5050746;28;20247;-66
2023/03/11 04:33:19;;;;;;;1.00;0.70;;;14.60;50.20;;;;;;5051676;28;20175;-66
2023/03/11 04:35:44;;;;;;;0.80;0.80;;;14.50;50.20;;;;;;5051297;28;20193;-66
2023/03/11 04:38:10;;;;;;;1.02;0.90;;;14.50;50.30;;;;;;5050988;28;20226;-65
2023/03/11 04:40:36;;;;;;;0.90;0.80;;;14.50;50.30;;;;;;5051682;28;20190;-65
2023/03/11 04:43:02;;;;;;;1.50;0.70;;;14.50;50.30;;;;;;5051389;28;20179;-66
2023/03/11 04:45:28;;;;;;;0.70;0.70;;;14.60;50.30;;;;;;5050754;28;20699;-64
2023/03/11 04:47:53;;;;;;;1.35;0.73;;;14.60;50.20;;;;;;5051174;28;20634;-64
2023/03/11 04:50:19;;;;;;;0.70;0.60;;;14.60;50.20;;;;;;5051390;28;20228;-64
2023/03/11 04:52:44;;;;;;;1.13;0.90;;;14.60;50.10;;;;;;5050769;28;20241;-65
2023/03/11 04:55:10;;;;;;;0.60;0.60;;;14.60;50.10;;;;;;5051832;28;20183;-64
2023/03/11 04:57:35;;;;;;;1.13;0.90;;;14.50;50.10;;;;;;5051475;28;20187;-66
2023/03/11 05:00:08;;;;;;;1.63;0.90;;;14.50;50.20;;;;;;5050353;28;20241;-66
2023/03/11 05:02:34;;;;;;;0.75;0.75;;;14.50;50.10;;;;;;5055205;28;20198;-66
2023/03/11 05:04:59;;;;;;;2.15;1.08;;;14.50;50.20;;;;;;5055061;28;20262;-66
2023/03/11 05:07:25;;;;;;;0.93;0.73;;;14.50;50.30;;;;;;5054309;28;20313;-65
2023/03/11 05:09:50;;;;;;;1.00;0.68;;;14.50;50.30;;;;;;5054894;28;20175;-64
2023/03/11 05:12:16;;;;;;;2.05;1.15;;;14.50;51.00;;;;;;5055024;28;20264;-64
2023/03/11 05:14:44;;;;;;;1.05;0.88;;;14.50;50.30;;;;;;5054023;28;20666;-66
2023/03/11 05:17:12;;;;;;;1.20;0.70;;;14.50;50.20;;;;;;5054859;28;20175;-65
2023/03/11 05:19:37;;;;;;;1.38;0.60;;;14.50;50.20;;;;;;5053882;28;20248;-65
2023/03/11 05:22:03;;;;;;;0.75;0.63;;;14.50;50.20;;;;;;5054444;28;20175;-65
2023/03/11 05:24:29;;;;;;;0.52;0.45;;;14.50;50.20;;;;;;5054878;28;20176;-65
2023/03/11 05:26:54;;;;;;;0.93;0.70;;;14.50;50.20;;;;;;5053733;28;20279;-65
2023/03/11 05:29:20;;;;;;;1.08;0.65;;;14.50;50.10;;;;;;5054686;28;20182;-66
2023/03/11 05:31:46;;;;;;;0.60;0.60;;;14.50;50.10;;;;;;5054286;28;20178;-67
2023/03/11 05:34:12;;;;;;;0.70;0.70;;;14.50;50.20;;;;;;5053815;28;20183;-67
2023/03/11 05:36:37;;;;;;;1.17;0.70;;;14.40;50.30;;;;;;5054483;28;20190;-66
2023/03/11 05:39:03;;;;;;;0.60;0.60;;;14.50;50.30;;;;;;5054108;28;20252;-65
2023/03/11 05:41:29;;;;;;;2.00;0.70;;;14.50;50.30;;;;;;5054026;28;20201;-65
2023/03/11 05:43:54;;;;;;;1.33;0.80;;;14.50;50.20;;;;;;5054441;28;20182;-65
2023/03/11 05:46:20;;;;;;;0.90;0.60;;;14.60;50.20;;;;;;5054330;28;20198;-65
2023/03/11 05:48:45;;;;;;;0.70;0.70;;;14.60;50.10;;;;;;5053767;28;20602;-65
2023/03/11 05:51:11;;;;;;;1.08;0.75;;;14.60;50.10;;;;;;5054246;28;20525;-64
2023/03/11 05:53:37;;;;;;;0.98;0.60;;;14.60;50.10;;;;;;5054420;28;20175;-65
2023/03/11 05:56:02;;;;;;;1.25;0.70;;;14.50;50.10;;;;;;5053383;28;20186;-65
2023/03/11 05:58:28;;;;;;;1.90;0.90;;;14.50;50.10;;;;;;5052987;28;20198;-66
2023/03/11 06:00:54;;;;;;;0.60;0.60;;;14.50;50.10;;;;;;5053752;28;20175;-66
2023/03/11 06:03:19;;;;;;;1.15;0.88;;;14.50;50.20;;;;;;5053254;28;20172;-66
2023/03/11 06:05:46;;;;;;;0.98;0.63;;;14.50;50.30;;;;;;5053722;28;20183;-65
2023/03/11 06:08:11;;;;;;;0.90;0.68;;;14.60;50.30;;;;;;5054171;28;20225;-65
2023/03/11 06:10:37;;;;;;;1.30;0.80;;;14.70;50.20;;;;;;5053235;28;20641;-65
2023/03/11 06:13:02;;;;;;;1.23;0.65;;;14.80;50.00;;;;;;5053357;28;20210;-65
2023/03/11 06:15:28;;;;;;;1.45;0.70;;;15.00;49.70;;;;;;5053701;28;20174;-65
2023/03/11 06:17:53;;;;;;;1.00;0.70;;;15.30;49.30;;;;;;5052767;28;20231;-65
2023/03/11 06:20:19;;;;;;;1.30;0.85;;;15.50;49.10;;;;;;5053973;28;20202;-65
2023/03/11 06:22:47;;;;;;;0.98;0.63;;;15.70;48.80;;;;;;5053384;28;20182;-65
2023/03/11 06:25:13;;;;;;;0.55;0.50;;;15.90;48.40;;;;;;5053125;28;20175;-65
2023/03/11 06:27:38;;;;;;;1.17;0.93;;;16.10;48.20;;;;;;5053713;28;20182;-66
2023/03/11 06:30:04;;;;;;;1.13;0.70;;;16.10;48.00;;;;;;5052730;28;20503;-66
2023/03/11 06:32:29;;;;;;;0.60;0.60;;;16.30;47.90;;;;;;5053818;28;20178;-68
2023/03/11 06:34:55;;;;;;;1.33;0.90;;;16.20;47.90;;;;;;5053441;28;20175;-67
2023/03/11 06:37:22;;;;;;;0.98;0.73;;;16.20;48.00;;;;;;5052830;28;20183;-66
2023/03/11 06:39:51;;;;;;;1.05;0.60;;;16.20;48.00;;;;;;5052882;28;20253;-65
2023/03/11 06:42:16;;;;;;;0.65;0.50;;;16.30;48.00;;;;;;5053190;28;20568;-65
2023/03/11 06:44:42;;;;;;;0.82;0.65;;;16.20;48.00;;;;;;5052221;28;20175;-65
2023/03/11 06:47:08;;;;;;;0.65;0.40;;;16.20;48.10;;;;;;5053428;28;20175;-65
2023/03/11 06:49:33;;;;;;;1.33;0.70;;;16.20;48.10;;;;;;5053369;28;20627;-65
2023/03/11 06:51:59;;;;;;;1.23;0.50;;;16.20;48.20;;;;;;5052432;28;20701;-65
2023/03/11 06:54:24;;;;;;;0.50;0.50;;;16.20;48.30;;;;;;5053314;28;20178;-65
2023/03/11 06:56:50;;;;;;;0.50;0.50;;;16.20;48.30;;;;;;5052693;28;20181;-65
2023/03/11 06:59:15;;;;;;;0.70;0.60;;;16.20;48.30;;;;;;5052436;28;20206;-67
2023/03/11 07:01:41;;;;;;;0.50;0.50;;;16.20;48.30;;;;;;5052901;28;20258;-66
2023/03/11 07:04:07;;;;;;;1.77;0.80;;;16.30;48.30;;;;;;5052953;28;20306;-67
2023/03/11 07:06:33;;;;;;;0.50;0.50;;;16.40;48.10;;;;;;5051182;28;20178;-65
2023/03/11 07:08:58;;;;;;;0.63;0.50;;;16.60;48.00;;;;;;5052960;28;20251;-65
2023/03/11 07:11:25;;;;;;;1.55;0.60;;;16.70;47.80;;;;;;5053230;28;20601;-65
2023/03/11 07:13:51;;;;;;;0.98;0.60;;;16.80;47.60;;;;;;5052032;28;20198;-66
2023/03/11 07:16:24;;;;;;;1.70;0.70;;;16.90;47.40;;;;;;5051616;28;20261;-65
2023/03/11 07:18:50;;;;;;;0.80;0.77;;;17.00;47.50;;;;;;5052854;28;20265;-66
2023/03/11 07:21:17;;;;;;;1.63;0.60;;;17.00;47.40;;;;;;5052327;28;20622;-65
2023/03/11 07:23:43;;;;;;;0.52;0.50;;;17.10;47.30;;;;;;5051984;28;20178;-66
2023/03/11 07:26:12;;;;;;;1.38;0.65;;;17.10;47.30;;;;;;5052672;28;20167;-65
2023/03/11 07:28:38;;;;;;;1.23;0.70;;;17.20;47.20;;;;;;5052952;28;20225;-65
2023/03/11 07:31:11;;;;;;;1.35;0.75;;;17.20;47.30;;;;;;5052678;28;20179;-66
2023/03/11 07:33:37;;;;;;;1.05;0.50;;;17.20;47.40;;;;;;5052119;28;20236;-67
2023/03/11 07:36:10;;;;;;;1.23;0.70;;;17.20;47.40;;;;;;5052680;28;20175;-66
2023/03/11 07:38:36;;;;;;;1.65;0.85;;;17.20;47.50;;;;;;5052587;28;20202;-65
2023/03/11 07:41:02;;;;;;;0.63;0.40;;;17.20;47.40;;;;;;5051587;28;20517;-65
2023/03/11 07:43:27;;;;;;;0.60;0.60;;;17.20;47.50;;;;;;5052618;28;20237;-65
2023/03/11 07:46:21;;;;;;;0.50;0.50;;;17.20;47.60;;;;;;5052514;28;20168;-65
2023/03/11 07:48:47;;;;;;;0.60;0.50;;;17.20;47.60;;;;;;5051527;28;20247;-65
2023/03/11 07:51:17;;;;;;;0.98;0.50;;;17.20;47.60;;;;;;5052341;28;20571;-64
2023/03/11 07:53:43;;;;;;;0.60;0.50;;;17.10;47.50;;;;;;5052336;28;20183;-65
2023/03/11 07:56:10;;;;;;;0.63;0.55;;;17.20;47.60;;;;;;5051902;28;20582;-66
2023/03/11 07:58:36;;;;;;;0.75;0.60;;;17.20;47.70;;;;;;5052424;28;20211;-66
2023/03/11 08:01:06;;;;;;;0.75;0.70;;;17.20;47.80;;;;;;5052006;28;20186;-66
2023/03/11 08:03:33;;;;;;;1.20;0.70;;;17.20;47.80;;;;;;5051623;28;20179;-66
2023/03/11 08:05:58;;;;;;;1.13;0.60;;;17.20;47.70;;;;;;5051949;28;20261;-66
2023/03/11 08:08:24;;;;;;;0.40;0.40;;;17.30;47.70;;;;;;5051590;28;20265;-66
2023/03/11 08:10:49;;;;;;;1.17;0.73;;;17.30;47.70;;;;;;5051942;28;20560;-65
2023/03/11 08:13:16;;;;;;;0.70;0.70;;;17.40;47.60;;;;;;5052152;28;20175;-65
2023/03/11 08:15:41;;;;;;;1.63;0.75;;;17.40;47.70;;;;;;5051380;28;20178;-66
2023/03/11 08:18:07;;;;;;;1.08;0.70;;;17.40;47.70;;;;;;5051882;28;20230;-65
2023/03/11 08:20:32;;;;;;;0.73;0.50;;;17.40;47.70;;;;;;5051988;28;20183;-66
2023/03/11 08:22:58;;;;;;;0.70;0.50;;;17.40;47.70;;;;;;5051240;28;20167;-65
2023/03/11 08:25:23;;;;;;;1.25;0.60;;;17.40;47.70;;;;;;5052423;28;20185;-66
2023/03/11 08:27:49;;;;;;;0.82;0.57;;;17.40;47.90;;;;;;5052045;28;20258;-66
2023/03/11 08:30:15;;;;;;;1.27;0.70;;;17.50;47.90;;;;;;5051596;28;20258;-66
2023/03/11 08:32:40;;;;;;;1.20;0.60;;;17.40;47.90;;;;;;5052455;28;20262;-67
2023/03/11 08:35:06;;;;;;;0.68;0.55;;;17.40;47.90;;;;;;5053469;28;20624;-65
2023/03/11 08:37:31;;;;;;;0.52;0.47;;;17.40;48.00;;;;;;5055867;28;20175;-66
2023/03/11 08:39:57;;;;;;;0.57;0.50;;;17.40;48.10;;;;;;5056132;28;20210;-65
2023/03/11 08:42:23;;;;;;;1.42;0.60;;;17.30;48.10;;;;;;5056406;28;20174;-64
2023/03/11 08:44:48;;;;;;;1.45;0.60;;;17.30;48.30;;;;;;5055156;28;20182;-65
2023/03/11 08:47:14;;;;;;;0.70;0.60;;;17.20;48.40;;;;;;5056070;28;20167;-64
2023/03/11 08:49:39;;;;;;;0.95;0.63;;;17.30;48.60;;;;;;5056242;28;20224;-64
2023/03/11 08:52:05;;;;;;;0.50;0.50;;;17.20;48.50;;;;;;5055356;28;20219;-64
2023/03/11 08:54:30;;;;;;;1.42;0.93;;;17.20;48.50;;;;;;5056000;28;20179;-64
2023/03/11 08:56:57;;;;;;;1.23;0.73;;;17.30;48.60;;;;;;5055796;28;20245;-65
2023/03/11 08:59:23;;;;;;;2.03;0.80;;;17.20;48.50;;;;;;5055274;28;20206;-66
2023/03/11 09:01:48;;;;;;;1.17;0.77;;;17.20;48.60;;;;;;5055614;28;20186;-66
2023/03/11 09:04:14;;;;;;;0.80;0.80;;;17.20;48.70;;;;;;5055694;28;20260;-65
2023/03/11 09:06:42;;;;;;;0.80;0.80;;;17.20;48.80;;;;;;5055037;28;20561;-65
2023/03/11 09:09:10;;;;;;;1.27;0.75;;;17.10;49.50;;;;;;5055719;28;20180;-65
2023/03/11 09:11:36;;;;;;;0.70;0.50;;;17.10;49.00;;;;;;5054684;28;20260;-66
2023/03/11 09:14:02;;;;;;;0.85;0.65;;;17.10;49.70;;;;;;5054918;28;20197;-65
2023/03/11 09:16:27;;;;;;;0.85;0.55;;;17.10;49.20;;;;;;5055559;28;20179;-65
2023/03/11 09:18:53;;;;;;;1.50;1.02;;;17.10;49.10;;;;;;5054305;28;20234;-65
2023/03/11 09:21:18;;;;;;;0.73;0.73;;;17.20;49.10;;;;;;5055657;28;20506;-65
2023/03/11 09:23:44;;;;;;;0.68;0.60;;;17.10;49.00;;;;;;5055161;28;20218;-65
2023/03/11 09:26:10;;;;;;;0.80;0.80;;;17.20;49.10;;;;;;5054743;28;20228;-66
2023/03/11 09:28:35;;;;;;;0.70;0.70;;;17.10;49.10;;;;;;5055355;28;20233;-66
2023/03/11 09:31:01;;;;;;;1.00;0.70;;;17.10;49.10;;;;;;5055126;28;20417;-65
2023/03/11 09:33:26;;;;;;;0.80;0.70;;;17.10;49.20;;;;;;5054509;28;20171;-67
2023/03/11 09:35:52;;;;;;;0.77;0.75;;;17.10;49.30;;;;;;5055101;28;20225;-65
2023/03/11 09:38:17;;;;;;;1.08;0.80;;;17.10;49.30;;;;;;5055318;28;20248;-65
2023/03/11 09:40:45;;;;;;;0.95;0.80;;;17.00;49.30;;;;;;5054232;28;20236;-65
2023/03/11 09:43:34;;;;;;;1.00;0.80;;;17.00;49.40;;;;;;5053861;28;20182;-64
2023/03/11 09:46:18;;;;;;;1.00;0.75;;;17.00;49.40;;;;;;5053206;28;20175;-64
2023/03/11 09:48:47;;;;;;;1.45;0.73;;;17.00;49.40;;;;;;5054197;28;20179;-64
2023/03/11 09:51:31;;;;;;;0.60;0.50;;;17.00;49.40;;;;;;5053902;28;20187;-64
2023/03/11 09:54:02;;;;;;;0.65;0.63;;;17.00;49.40;;;;;;5052778;28;20175;-64
2023/03/11 09:56:27;;;;;;;0.93;0.60;;;17.00;49.50;;;;;;5054861;28;20710;-66
2023/03/11 09:59:00;;;;;;;1.25;0.80;;;17.00;49.40;;;;;;5054609;28;20206;-66
2023/03/11 10:01:32;;;;;;;0.80;0.80;;;17.00;49.50;;;;;;5052827;28;20653;-66
2023/03/11 10:04:25;;;;;;;0.60;0.60;;;16.90;49.60;;;;;;5054353;28;20262;-65
2023/03/11 10:06:51;;;;;;;1.55;0.63;;;16.90;49.60;;;;;;5053140;28;20167;-65
2023/03/11 10:09:37;;;;;;;1.23;0.88;;;16.90;49.60;;;;;;5052701;28;20233;-64
2023/03/11 10:12:22;;;;;;;1.58;0.90;;;16.90;49.60;;;;;;5053077;28;20200;-64
2023/03/11 10:15:14;;;;;;;0.50;0.50;;;16.80;49.70;;;;;;5054471;28;20243;-65
2023/03/11 10:18:09;;;;;;;0.57;0.55;;;16.80;49.80;;;;;;5033210;28;20199;-65
2023/03/11 10:20:50;;;;;;;0.90;0.63;;;16.80;49.90;;;;;;5033435;28;20191;-65
2023/03/11 10:23:15;;;;;;;1.65;0.65;;;16.80;50.00;;;;;;5033683;28;20180;-64
2023/03/11 10:26:08;;;;;;;1.25;0.60;;;16.80;50.00;;;;;;5062451;28;20270;-64
2023/03/11 10:28:39;;;;;;;0.60;0.60;;;16.80;50.00;;;;;;5045491;28;20174;-65
2023/03/11 10:31:17;;;;;;;1.35;0.70;;;16.80;50.00;;;;;;5072209;28;20171;-66
2023/03/11 10:33:45;;;;;;;0.77;0.60;;;16.80;50.00;;;;;;5057287;28;20186;-67
2023/03/11 10:36:18;;;;;;;0.75;0.63;;;16.80;50.00;;;;;;5035890;28;20175;-65
2023/03/11 10:38:47;;;;;;;1.48;0.52;;;16.80;50.10;;;;;;5052826;28;20207;-66
2023/03/11 10:41:42;;;;;;;0.45;0.40;;;16.80;50.10;;;;;;5058847;28;20170;-65
2023/03/11 10:44:15;;;;;;;1.15;0.70;;;16.70;50.20;;;;;;5056474;28;20651;-64
2023/03/11 10:46:40;;;;;;;0.50;0.50;;;16.70;50.30;;;;;;5072938;28;20182;-64
2023/03/11 10:49:14;;;;;;;0.98;0.73;;;16.70;50.20;;;;;;5073883;28;20243;-64
2023/03/11 10:51:39;;;;;;;1.38;0.50;;;16.80;50.30;;;;;;5073079;28;20174;-63
2023/03/11 10:54:05;;;;;;;0.75;0.70;;;16.80;50.30;;;;;;5072385;28;20181;-64
2023/03/11 10:56:38;;;;;;;0.73;0.60;;;16.80;50.20;;;;;;5059984;28;20187;-68
2023/03/11 10:59:25;;;;;;;1.17;0.70;;;16.80;50.20;;;;;;5051807;28;20253;-65
2023/03/11 11:02:01;;;;;;;2.47;0.68;;;16.90;50.30;;;;;;5028989;28;20260;-68
2023/03/11 11:04:29;;;;;;;0.63;0.50;;;16.90;50.20;;;;;;5032867;28;20240;-72
2023/03/11 11:06:55;;;;;;;1.35;0.60;;;17.00;50.20;;;;;;5033378;28;20187;-73
2023/03/11 11:09:21;;;;;;;0.73;0.50;;;17.00;50.20;;;;;;5032471;28;20179;-70
2023/03/11 11:12:16;;;;;;;6.88;1.00;;;16.90;50.20;;;;;;5032317;28;20242;-66
2023/03/11 11:14:46;;;;;;;3.08;0.77;;;16.90;50.30;;;;;;5033225;28;20552;-65
2023/03/11 11:17:31;;;;;;;1.85;0.82;;;16.90;50.20;;;;;;5033307;28;20183;-65
2023/03/11 11:19:57;;;;;;;4.00;0.77;;;17.00;50.30;;;;;;5030998;28;20223;-65
2023/03/11 11:22:23;;;;;;;2.28;0.60;;;16.90;50.30;;;;;;5015816;28;20183;-66
2023/03/11 11:24:53;;;;;;;1.00;0.60;;;16.90;50.30;;;;;;5032922;28;20233;-65
2023/03/11 11:27:19;;;;;;;2.22;0.50;;;17.00;50.40;;;;;;5031413;28;20172;-66
2023/03/11 11:29:45;;;;;;;0.60;0.60;;;17.00;50.40;;;;;;5033013;28;20172;-66
2023/03/11 11:32:16;;;;;;;1.25;0.43;;;17.00;50.40;;;;;;5033204;28;20225;-65
2023/03/11 11:34:41;;;;;;;2.00;0.70;;;17.00;50.40;;;;;;5032176;28;20180;-66
2023/03/11 11:37:10;;;;;;;2.90;0.68;;;17.00;50.50;;;;;;5033053;28;20182;-66
2023/03/11 11:39:44;;;;;;;1.33;0.60;;;16.90;50.60;;;;;;5032108;28;20682;-65
2023/03/11 11:42:10;;;;;;;2.75;0.60;;;17.00;50.70;;;;;;5015830;28;20198;-64
2023/03/11 11:44:35;;;;;;;1.00;0.50;;;17.00;50.50;;;;;;5015294;28;20278;-64
2023/03/11 11:47:16;;;;;;;2.05;1.00;;;17.00;50.50;;;;;;5031885;28;20474;-63
2023/03/11 11:49:51;;;;;;;1.60;0.60;;;17.10;50.60;;;;;;5015411;28;20284;-63
2023/03/11 11:52:23;;;;;;;1.85;0.63;;;17.00;50.50;;;;;;5016559;28;20187;-63
2023/03/11 11:55:01;;;;;;;4.95;0.70;;;17.00;50.50;;;;;;5030714;28;20184;-64
2023/03/11 11:57:26;;;;;;;3.30;1.00;;;17.00;50.50;;;;;;5033169;28;20277;-65
2023/03/11 11:59:52;;;;;;;0.75;0.43;;;17.10;50.50;;;;;;5031291;28;20260;-65
2023/03/11 12:02:33;;;;;;;0.88;0.60;;;17.10;50.50;;;;;;5032309;28;20168;-65
2023/03/11 12:05:06;;;;;;;1.65;0.73;;;17.10;50.40;;;;;;5031408;28;20175;-64
2023/03/11 12:08:09;;;;;;;1.85;0.60;;;17.10;50.40;;;;;;5030677;28;20186;-64
2023/03/11 12:10:42;;;;;;;1.45;0.50;;;17.10;50.40;;;;;;5032537;28;20175;-63
2023/03/11 12:13:27;;;;;;;0.73;0.73;;;17.10;50.30;;;;;;5015260;28;20179;-63
2023/03/11 12:16:02;;;;;;;1.27;0.88;;;17.00;50.30;;;;;;5031564;28;20258;-63
2023/03/11 12:18:36;;;;;;;2.20;0.85;;;17.00;50.40;;;;;;5032396;28;20270;-64
2023/03/11 12:21:26;;;;;;;1.70;0.50;;;16.90;50.50;;;;;;5031183;28;20282;-63
2023/03/11 12:24:16;;;;;;;2.05;0.60;;;16.90;50.50;;;;;;5030570;28;20180;-64
2023/03/11 12:26:41;;;;;;;1.52;0.70;;;17.00;50.40;;;;;;5032044;28;20183;-64
2023/03/11 12:29:22;;;;;;;0.80;0.77;;;16.90;50.50;;;;;;5030595;28;20176;-64
2023/03/11 12:31:47;;;;;;;1.17;0.50;;;17.00;50.40;;;;;;5031947;28;20201;-65
2023/03/11 12:34:13;;;;;;;0.55;0.55;;;16.90;50.40;;;;;;5014693;28;20176;-66
2023/03/11 12:36:40;;;;;;;1.98;0.85;;;16.90;50.40;;;;;;5030301;28;20553;-65
2023/03/11 12:39:07;;;;;;;1.17;0.55;;;16.90;50.30;;;;;;5032006;28;20248;-64
2023/03/11 12:41:38;;;;;;;0.40;0.40;;;16.90;50.30;;;;;;5030857;28;20172;-64
2023/03/11 12:44:16;;;;;;;2.40;0.60;;;16.90;50.20;;;;;;5031190;28;20650;-64
2023/03/11 12:46:56;;;;;;;0.65;0.65;;;16.90;50.10;;;;;;5031824;28;20650;-64
2023/03/11 12:49:25;;;;;;;0.82;0.57;;;16.90;50.10;;;;;;5031929;28;20213;-63
2023/03/11 12:52:22;;;;;;;2.22;0.90;;;16.90;50.10;;;;;;5031317;28;20180;-63
2023/03/11 12:55:09;;;;;;;1.67;0.60;;;17.00;50.10;;;;;;5027395;28;20233;-64